CheckWX is a tool to help pilots better visualize weather data.  It is not intended as a substitute for an official pre-flight weather briefing.

17:08:02 UTC

KLNC METAR
Lancaster Regional Airport
Lancaster, Texas, USA
Current

33 mins ago

KLNC 211635Z AUTO 20009KT 10SM CLR 32/21 A2998 RMK AO2 LTG DSNT SE T03170208
Observed
Jul-21 @ 16:35 UTC
Wind
  • 200° at 9 KTS
Visibility
10 SM
Flight Rules
VFR
Cloud Levels
  • Clear skies
Temperature
32°C / 90°F
Dewpoint
21°C / 70°F
Heat Index
36°C / 96°F
Humidity
52%
Altimeter
29.98" Hg
Pressure
1015.22 hPa
Previous

53 mins ago

KLNC 211615Z AUTO 22008KT 10SM CLR 31/21 A2998 RMK AO2 T03080206
Observed
Jul-21 @ 16:15 UTC
Wind
  • 220° at 8 KTS
Visibility
10 SM
Flight Rules
VFR
Cloud Levels
  • Clear skies
Temperature
31°C / 88°F
Dewpoint
21°C / 70°F
Heat Index
34°C / 93°F
Humidity
55%
Altimeter
29.98" Hg
Pressure
1015.22 hPa
Previous

1 hour ago

KLNC 211555Z AUTO 17009KT 10SM CLR 30/21 A2999 RMK AO2 T03040211
Observed
Jul-21 @ 15:55 UTC
Wind
  • 170° at 9 KTS
Visibility
10 SM
Flight Rules
VFR
Cloud Levels
  • Clear skies
Temperature
30°C / 86°F
Dewpoint
21°C / 70°F
Heat Index
33°C / 91°F
Humidity
59%
Altimeter
29.99" Hg
Pressure
1015.62 hPa